createdAt,value
2023-01-11T00:00:39.235Z,28.40
2023-01-11T00:03:07.064Z,25.17
2023-01-11T00:05:43.943Z,27.27
2023-01-11T00:08:11.759Z,26.47
2023-01-11T00:10:38.871Z,27.30
2023-01-11T00:13:06.080Z,23.93
2023-01-11T00:15:33.123Z,26.83
2023-01-11T00:18:00.097Z,26.83
2023-01-11T00:20:27.214Z,27.13
2023-01-11T00:22:53.991Z,27.63
2023-01-11T00:25:20.881Z,26.60
2023-01-11T00:27:49.513Z,26.97
2023-01-11T00:30:17.894Z,26.97
2023-01-11T00:32:44.792Z,27.10
2023-01-11T00:35:11.970Z,24.27
2023-01-11T00:37:39.477Z,25.70
2023-01-11T00:40:08.251Z,25.43
2023-01-11T00:42:54.009Z,24.20
2023-01-11T00:45:39.692Z,26.40
2023-01-11T00:48:08.004Z,26.30
2023-01-11T00:50:37.247Z,26.13
2023-01-11T00:53:05.587Z,27.60
2023-01-11T00:55:33.333Z,27.50
2023-01-11T00:58:01.420Z,27.87
2023-01-11T01:00:30.498Z,27.93
2023-01-11T01:02:57.495Z,28.57
2023-01-11T01:05:24.836Z,27.93
2023-01-11T01:07:51.734Z,27.17
2023-01-11T01:10:19.625Z,28.17
2023-01-11T01:13:05.091Z,26.80
2023-01-11T01:15:32.874Z,27.70
2023-01-11T01:17:59.763Z,27.07
2023-01-11T01:20:27.181Z,26.93
2023-01-11T01:22:53.987Z,27.83
2023-01-11T01:25:20.919Z,27.87
2023-01-11T01:27:47.777Z,28.13
2023-01-11T01:30:14.982Z,26.43
2023-01-11T01:32:41.837Z,28.17
2023-01-11T01:35:08.999Z,29.47
2023-01-11T01:37:35.928Z,27.27
2023-01-11T01:40:03.143Z,28.43
2023-01-11T01:42:29.928Z,29.03
2023-01-11T01:45:04.872Z,29.23
2023-01-11T01:47:34.521Z,32.23
2023-01-11T01:50:06.606Z,31.23
2023-01-11T01:52:35.346Z,31.53
2023-01-11T01:55:09.721Z,34.93
2023-01-11T01:57:39.974Z,35.43
2023-01-11T02:00:08.954Z,33.27
2023-01-11T02:02:37.379Z,32.53
2023-01-11T02:05:05.666Z,32.50
2023-01-11T02:07:35.530Z,34.23
2023-01-11T02:10:28.091Z,29.07
2023-01-11T02:13:00.898Z,31.37
2023-01-11T02:15:28.974Z,32.13
2023-01-11T02:17:55.905Z,33.00
2023-01-11T02:21:00.588Z,30.70
2023-01-11T02:23:27.286Z,31.67
2023-01-11T02:25:59.772Z,31.27
2023-01-11T02:28:55.971Z,30.70
2023-01-11T02:31:43.118Z,34.00
2023-01-11T02:34:41.917Z,31.33
2023-01-11T02:37:24.473Z,34.00
2023-01-11T02:40:03.136Z,32.83
2023-01-11T02:43:10.166Z,31.53
2023-01-11T02:45:59.998Z,32.73
2023-01-11T02:49:09.333Z,28.90
2023-01-11T02:51:45.894Z,29.23
2023-01-11T02:54:17.112Z,30.40
2023-01-11T02:56:46.989Z,30.57
2023-01-11T02:59:20.978Z,27.80
2023-01-11T03:01:55.573Z,33.43
2023-01-11T03:04:26.667Z,30.20
2023-01-11T03:07:23.785Z,31.90
2023-01-11T03:10:17.198Z,29.80
2023-01-11T03:13:37.370Z,29.43
2023-01-11T03:16:24.364Z,27.53
2023-01-11T03:19:00.146Z,40.07
2023-01-11T03:21:58.933Z,36.43
2023-01-11T03:24:37.302Z,38.13
2023-01-11T03:27:17.343Z,29.40
2023-01-11T03:30:05.906Z,28.47
2023-01-11T03:32:50.074Z,28.83
2023-01-11T03:35:31.357Z,27.47
2023-01-11T03:38:04.577Z,28.77
2023-01-11T03:40:36.370Z,28.40
2023-01-11T03:43:13.288Z,28.43
2023-01-11T03:45:47.547Z,28.37
2023-01-11T03:48:22.171Z,29.03
2023-01-11T03:50:51.013Z,30.63
2023-01-11T03:53:19.681Z,33.10
2023-01-11T03:55:51.545Z,31.07
2023-01-11T03:58:18.899Z,32.13
2023-01-11T04:00:46.203Z,29.73
2023-01-11T04:03:14.672Z,27.70
2023-01-11T04:05:44.338Z,30.37
2023-01-11T04:08:11.562Z,27.80
2023-01-11T04:10:39.340Z,28.07
2023-01-11T04:13:06.165Z,24.43
2023-01-11T04:15:34.728Z,25.43
2023-01-11T04:18:05.235Z,25.90
2023-01-11T04:20:33.817Z,27.47
2023-01-11T04:23:00.665Z,29.30
2023-01-11T04:25:27.572Z,29.73
2023-01-11T04:27:54.473Z,28.70
2023-01-11T04:30:21.529Z,28.33
2023-01-11T04:32:48.299Z,28.23
2023-01-11T04:35:15.208Z,26.90
2023-01-11T04:37:42.173Z,29.17
2023-01-11T04:40:09.751Z,30.90
2023-01-11T04:42:36.640Z,30.13
2023-01-11T04:45:06.776Z,25.17
2023-01-11T04:47:33.625Z,25.37
2023-01-11T04:50:00.426Z,24.47
2023-01-11T04:52:27.228Z,25.50
2023-01-11T04:54:54.102Z,26.27
2023-01-11T04:57:21.160Z,24.73
2023-01-11T04:59:48.749Z,23.80
2023-01-11T05:02:15.952Z,27.33
2023-01-11T05:04:43.071Z,25.37
2023-01-11T05:07:10.819Z,24.03
2023-01-11T05:09:38.158Z,25.80
2023-01-11T05:12:05.084Z,24.23
2023-01-11T05:14:31.933Z,24.83
2023-01-11T05:16:58.996Z,23.27
2023-01-11T05:19:25.866Z,22.07
2023-01-11T05:21:52.653Z,22.10
2023-01-11T05:24:19.517Z,24.10
2023-01-11T05:26:48.460Z,21.23
2023-01-11T05:29:21.203Z,23.37
2023-01-11T05:31:48.434Z,22.07
2023-01-11T05:34:16.910Z,22.63
2023-01-11T05:36:44.561Z,21.63
2023-01-11T05:39:13.021Z,22.97
2023-01-11T05:41:40.087Z,22.47
2023-01-11T05:44:29.706Z,23.77
2023-01-11T05:46:56.518Z,21.93
2023-01-11T05:49:23.352Z,22.97
2023-01-11T05:51:50.153Z,23.73
2023-01-11T05:54:16.990Z,20.83
2023-01-11T05:56:43.928Z,21.40
2023-01-11T05:59:11.177Z,22.20
2023-01-11T06:01:38.237Z,20.90
2023-01-11T06:04:05.295Z,20.17
2023-01-11T06:06:32.875Z,23.13
2023-01-11T06:08:59.817Z,20.67
2023-01-11T06:11:26.601Z,22.83
2023-01-11T06:13:53.427Z,21.80
2023-01-11T06:16:21.293Z,20.17
2023-01-11T06:18:50.356Z,22.40
2023-01-11T06:21:18.193Z,19.10
2023-01-11T06:23:47.355Z,19.63
2023-01-11T06:26:16.542Z,19.57
2023-01-11T06:28:43.952Z,19.87
2023-01-11T06:31:11.267Z,20.10
2023-01-11T06:33:39.165Z,19.53
2023-01-11T06:36:08.713Z,19.23
2023-01-11T06:38:36.136Z,20.00
2023-01-11T06:41:05.724Z,19.67
2023-01-11T06:43:33.027Z,19.73
2023-01-11T06:46:00.355Z,20.77
2023-01-11T06:48:27.685Z,20.73
2023-01-11T06:50:56.899Z,20.63
2023-01-11T06:53:28.115Z,20.63
2023-01-11T06:55:57.168Z,20.83
2023-01-11T06:58:24.831Z,19.47
2023-01-11T07:00:53.256Z,21.07
2023-01-11T07:03:20.858Z,19.10
2023-01-11T07:05:48.016Z,20.67
2023-01-11T07:08:15.114Z,20.83
2023-01-11T07:10:43.735Z,19.23
2023-01-11T07:13:11.900Z,18.43
2023-01-11T07:15:39.100Z,18.13
2023-01-11T07:18:06.030Z,18.07
2023-01-11T07:20:32.873Z,17.93
2023-01-11T07:23:00.968Z,17.70
2023-01-11T07:25:29.081Z,17.07
2023-01-11T07:28:00.803Z,18.50
2023-01-11T07:30:29.388Z,16.27
2023-01-11T07:32:59.012Z,16.03
2023-01-11T07:35:28.912Z,16.87
2023-01-11T07:37:56.149Z,17.77
2023-01-11T07:40:23.050Z,17.70
2023-01-11T07:43:09.739Z,16.67
2023-01-11T07:45:45.501Z,18.47
2023-01-11T07:48:27.867Z,16.73
2023-01-11T07:50:55.079Z,14.17
2023-01-11T07:53:25.584Z,17.57
2023-01-11T07:55:52.839Z,22.67
2023-01-11T07:58:19.636Z,25.33
2023-01-11T08:00:46.478Z,26.47
2023-01-11T08:03:13.681Z,23.53
2023-01-11T08:05:40.807Z,21.97
2023-01-11T08:08:08.222Z,20.50
2023-01-11T08:10:35.058Z,18.87
2023-01-11T08:13:20.432Z,18.13
2023-01-11T08:15:47.315Z,23.53
2023-01-11T08:18:14.276Z,20.00
2023-01-11T08:20:41.525Z,26.27
2023-01-11T08:23:09.738Z,27.50
2023-01-11T08:25:37.043Z,16.20
2023-01-11T08:28:06.223Z,16.03
2023-01-11T08:30:33.551Z,17.60
2023-01-11T08:33:04.609Z,16.80
2023-01-11T08:35:36.645Z,17.20
2023-01-11T08:38:03.439Z,15.13
2023-01-11T08:40:30.293Z,15.47
2023-01-11T08:42:57.476Z,14.07
2023-01-11T08:45:24.703Z,15.13
2023-01-11T08:47:52.165Z,14.27
2023-01-11T08:50:20.252Z,15.27
2023-01-11T08:52:49.567Z,15.50
2023-01-11T08:55:16.507Z,15.53
2023-01-11T08:57:43.426Z,12.97
2023-01-11T09:00:11.401Z,14.63
2023-01-11T09:02:38.224Z,15.60
2023-01-11T09:05:05.439Z,15.43
2023-01-11T09:07:32.210Z,14.07
2023-01-11T09:09:58.999Z,15.53
2023-01-11T09:12:27.149Z,17.67
2023-01-11T09:14:53.945Z,20.90
2023-01-11T09:17:20.727Z,14.83
2023-01-11T09:19:47.553Z,20.23
2023-01-11T09:22:14.341Z,19.70
2023-01-11T09:24:41.129Z,17.20
2023-01-11T09:27:08.063Z,19.23
2023-01-11T09:29:37.195Z,18.50
2023-01-11T09:32:05.077Z,17.17
2023-01-11T09:34:31.973Z,14.13
2023-01-11T09:37:00.795Z,13.27
2023-01-11T09:39:28.857Z,14.87
2023-01-11T09:42:11.291Z,13.97
2023-01-11T09:44:54.175Z,12.63
2023-01-11T09:47:46.765Z,12.47
2023-01-11T09:50:19.816Z,13.03
2023-01-11T09:52:52.789Z,14.57
2023-01-11T09:55:28.079Z,13.63
2023-01-11T09:58:20.189Z,13.20
2023-01-11T10:01:07.036Z,13.40
2023-01-11T10:03:36.864Z,11.03
2023-01-11T10:06:28.565Z,11.20
2023-01-11T10:18:37.308Z,13.77
2023-01-11T10:19:11.833Z,12.80
2023-01-11T10:21:46.511Z,12.23
2023-01-11T10:24:22.686Z,12.70
2023-01-11T10:26:52.520Z,12.87
2023-01-11T10:30:01.597Z,11.87
2023-01-11T10:33:14.961Z,11.17
2023-01-11T10:36:20.029Z,12.43
2023-01-11T10:39:28.927Z,12.87
2023-01-11T10:42:21.809Z,12.17
2023-01-11T10:45:12.852Z,13.63
2023-01-11T10:48:07.526Z,13.80
2023-01-11T10:50:44.228Z,12.73
2023-01-11T10:53:34.683Z,13.17
2023-01-11T10:56:07.387Z,12.73
2023-01-11T10:58:46.485Z,14.40
2023-01-11T11:01:40.916Z,15.87
2023-01-11T11:04:26.343Z,16.43
2023-01-11T11:07:15.123Z,16.77
2023-01-11T11:10:08.837Z,13.83
2023-01-11T11:12:40.593Z,15.63
2023-01-11T11:15:33.813Z,16.13
2023-01-11T11:18:00.787Z,15.30
2023-01-11T11:20:33.677Z,16.13
2023-01-11T11:23:01.060Z,13.13
2023-01-11T11:25:40.837Z,13.33
2023-01-11T11:28:15.444Z,13.07
2023-01-11T11:30:46.518Z,12.63
2023-01-11T11:33:37.697Z,13.07
2023-01-11T11:36:12.885Z,12.20
2023-01-11T11:38:42.327Z,12.93
2023-01-11T11:41:13.823Z,10.90
2023-01-11T11:43:45.250Z,12.03
2023-01-11T11:46:19.351Z,10.60
2023-01-11T11:49:18.954Z,10.17
2023-01-11T11:51:47.711Z,10.87
2023-01-11T11:54:22.137Z,11.33
2023-01-11T11:56:49.674Z,11.07
2023-01-11T11:59:20.295Z,12.00
2023-01-11T12:01:54.803Z,11.53
2023-01-11T12:04:30.242Z,12.60
2023-01-11T12:07:15.971Z,11.43
2023-01-11T12:09:48.223Z,11.37
2023-01-11T12:12:20.804Z,11.90
2023-01-11T12:15:20.656Z,11.77
2023-01-11T12:17:48.442Z,12.03
2023-01-11T12:20:24.167Z,12.83
2023-01-11T12:23:12.640Z,16.17
2023-01-11T12:26:17.377Z,13.63
2023-01-11T12:29:08.035Z,12.87
2023-01-11T12:31:57.222Z,12.87
2023-01-11T12:34:49.791Z,14.57
2023-01-11T12:37:31.039Z,17.07
2023-01-11T12:40:30.712Z,16.80
2023-01-11T12:43:04.610Z,16.07
2023-01-11T12:45:45.395Z,14.43
2023-01-11T12:48:41.091Z,18.47
2023-01-11T12:51:16.601Z,19.17
2023-01-11T12:53:54.651Z,17.77
2023-01-11T12:56:58.589Z,17.83
2023-01-11T12:59:25.342Z,17.00
2023-01-11T13:02:22.242Z,19.23
2023-01-11T13:05:08.834Z,16.23
2023-01-11T13:07:54.372Z,18.50
2023-01-11T13:10:41.956Z,19.97
2023-01-11T13:13:25.483Z,16.13
2023-01-11T13:16:14.589Z,20.07
2023-01-11T13:18:59.242Z,21.20
2023-01-11T13:21:34.485Z,22.23
2023-01-11T13:24:32.374Z,24.67
2023-01-11T13:27:04.550Z,20.47
2023-01-11T13:29:41.269Z,19.77
2023-01-11T13:32:40.138Z,19.90
2023-01-11T13:35:16.564Z,20.07
2023-01-11T13:37:58.648Z,20.73
2023-01-11T13:40:34.440Z,25.83
2023-01-11T13:43:27.416Z,22.17
2023-01-11T13:46:26.575Z,20.70
2023-01-11T13:49:23.285Z,20.10
2023-01-11T13:52:03.999Z,20.60
2023-01-11T13:54:58.410Z,19.47
2023-01-11T13:57:39.267Z,19.70
2023-01-11T14:00:53.888Z,19.40
2023-01-11T14:03:35.354Z,19.93
2023-01-11T14:06:20.894Z,19.23
2023-01-11T14:09:18.367Z,18.20
2023-01-11T14:11:54.941Z,19.80
2023-01-11T14:14:40.401Z,20.13
2023-01-11T14:17:38.365Z,19.07
2023-01-11T14:20:05.156Z,21.80
2023-01-11T14:22:44.217Z,18.70
2023-01-11T14:25:33.443Z,21.03
2023-01-11T14:28:22.972Z,18.97
2023-01-11T14:31:08.273Z,20.23
2023-01-11T14:33:35.118Z,21.13
2023-01-11T14:36:29.771Z,20.33
2023-01-11T14:39:30.854Z,21.87
2023-01-11T14:42:21.991Z,23.47
2023-01-11T14:45:06.059Z,26.83
2023-01-11T14:47:39.644Z,22.00
2023-01-11T14:50:18.423Z,24.87
2023-01-11T14:52:45.935Z,29.83
2023-01-11T14:55:21.796Z,25.47
2023-01-11T14:58:18.228Z,21.53
2023-01-11T15:00:45.021Z,20.63
2023-01-11T15:03:19.634Z,24.77
2023-01-11T15:05:55.153Z,22.03
2023-01-11T15:08:27.345Z,23.83
2023-01-11T15:11:07.736Z,23.30
2023-01-11T15:13:43.156Z,23.90
2023-01-11T15:16:38.184Z,25.20
2023-01-11T15:19:08.740Z,25.43
2023-01-11T15:21:47.944Z,24.97
2023-01-11T15:24:27.868Z,29.37
2023-01-11T15:26:57.359Z,32.00
2023-01-11T15:29:29.376Z,25.80
2023-01-11T15:32:02.483Z,30.30
2023-01-11T15:34:42.211Z,24.80
2023-01-11T15:37:26.853Z,23.97
2023-01-11T15:40:03.572Z,23.57
2023-01-11T15:42:52.721Z,21.03
2023-01-11T15:46:15.297Z,22.43
2023-01-11T15:49:17.735Z,21.83
2023-01-11T15:52:06.529Z,21.23
2023-01-11T15:54:58.433Z,21.07
2023-01-11T15:57:30.880Z,22.73
2023-01-11T16:00:03.299Z,20.27
2023-01-11T16:02:32.895Z,21.20
2023-01-11T16:05:21.849Z,23.10
2023-01-11T16:08:14.405Z,22.20
2023-01-11T16:11:02.268Z,21.10
2023-01-11T16:13:50.412Z,20.97
2023-01-11T16:16:22.237Z,22.13
2023-01-11T16:18:51.823Z,20.30
2023-01-11T16:21:40.171Z,22.00
2023-01-11T16:24:15.765Z,21.87
2023-01-11T16:26:42.743Z,20.50
2023-01-11T16:29:23.317Z,23.47
2023-01-11T16:31:58.944Z,20.03
2023-01-11T16:34:28.916Z,20.17
2023-01-11T16:36:57.619Z,18.80
2023-01-11T16:39:29.494Z,12.00
2023-01-11T16:41:59.165Z,21.60
2023-01-11T16:44:28.750Z,16.93
2023-01-11T16:47:04.542Z,18.23
2023-01-11T16:49:31.563Z,17.07
2023-01-11T16:52:01.790Z,18.57
2023-01-11T16:54:33.395Z,18.13
2023-01-11T16:57:01.345Z,16.87
2023-01-11T16:59:34.855Z,16.37
2023-01-11T17:02:06.322Z,17.57
2023-01-11T17:04:35.846Z,16.03
2023-01-11T17:07:27.993Z,16.37
2023-01-11T17:10:25.575Z,16.80
2023-01-11T17:13:42.867Z,16.63
2023-01-11T17:16:13.633Z,15.07
2023-01-11T17:18:41.978Z,13.83
2023-01-11T17:21:22.805Z,14.80
2023-01-11T17:23:51.685Z,14.97
2023-01-11T17:26:24.651Z,15.73
2023-01-11T17:28:57.314Z,15.03
2023-01-11T17:31:31.041Z,15.27
2023-01-11T17:34:05.361Z,16.13
2023-01-11T17:36:33.109Z,16.77
2023-01-11T17:39:01.636Z,15.30
2023-01-11T17:41:48.984Z,16.00
2023-01-11T17:44:47.556Z,17.43
2023-01-11T17:47:14.628Z,20.17
2023-01-11T17:49:41.520Z,19.30
2023-01-11T17:52:22.734Z,18.00
2023-01-11T17:55:01.645Z,14.40
2023-01-11T17:57:28.901Z,14.70
2023-01-11T18:00:34.241Z,13.77
2023-01-11T18:03:08.171Z,14.63
2023-01-11T18:05:35.396Z,17.27
2023-01-11T18:08:04.030Z,13.20
2023-01-11T18:10:37.289Z,14.43
2023-01-11T18:13:04.260Z,11.23
2023-01-11T18:15:34.166Z,13.87
2023-01-11T18:18:01.846Z,12.40
2023-01-11T18:20:33.496Z,13.40
2023-01-11T18:23:23.116Z,14.47
2023-01-11T18:25:50.357Z,14.53
2023-01-11T18:28:26.219Z,15.40
2023-01-11T18:30:58.278Z,15.63
2023-01-11T18:33:28.176Z,15.00
2023-01-11T18:36:01.773Z,14.40
2023-01-11T18:38:34.052Z,16.27
2023-01-11T18:41:27.071Z,12.60
2023-01-11T18:43:55.844Z,14.87
2023-01-11T18:46:22.949Z,13.07
2023-01-11T18:48:52.308Z,14.33
2023-01-11T18:51:29.092Z,14.93
2023-01-11T18:53:56.033Z,15.73
2023-01-11T18:56:22.924Z,15.27
2023-01-11T18:58:50.145Z,16.43
2023-01-11T19:01:17.447Z,17.37
2023-01-11T19:03:46.131Z,16.30
2023-01-11T19:06:13.421Z,15.40
2023-01-11T19:08:40.607Z,16.10
2023-01-11T19:11:07.691Z,17.20
2023-01-11T19:13:35.739Z,17.00
2023-01-11T19:16:02.949Z,16.33
2023-01-11T19:18:30.304Z,16.70
2023-01-11T19:21:06.686Z,16.17
2023-01-11T19:23:34.299Z,16.73
2023-01-11T19:26:04.379Z,17.80
2023-01-11T19:28:31.540Z,16.00
2023-01-11T19:30:58.827Z,17.37
2023-01-11T19:33:27.924Z,17.60
2023-01-11T19:35:56.186Z,15.83
2023-01-11T19:38:23.195Z,15.10
2023-01-11T19:40:50.572Z,15.30
2023-01-11T19:43:17.623Z,17.17
2023-01-11T19:45:44.447Z,16.07
2023-01-11T19:48:12.395Z,15.00
2023-01-11T19:50:39.477Z,16.90
2023-01-11T19:53:06.354Z,18.13
2023-01-11T19:55:33.274Z,17.10
2023-01-11T19:58:02.652Z,15.37
2023-01-11T20:00:30.039Z,18.23
2023-01-11T20:02:57.260Z,17.70
2023-01-11T20:05:24.147Z,18.03
2023-01-11T20:07:51.119Z,17.73
2023-01-11T20:10:18.029Z,15.93
2023-01-11T20:12:44.815Z,15.93
2023-01-11T20:15:11.944Z,16.30
2023-01-11T20:17:38.773Z,18.23
2023-01-11T20:20:06.838Z,16.97
2023-01-11T20:22:34.036Z,16.93
2023-01-11T20:25:01.077Z,16.83
2023-01-11T20:27:28.158Z,17.40
2023-01-11T20:29:54.948Z,14.13
2023-01-11T20:32:41.053Z,17.53
2023-01-11T20:35:09.087Z,16.37
2023-01-11T20:37:35.924Z,16.13
2023-01-11T20:40:02.760Z,14.23
2023-01-11T20:42:31.204Z,16.13
2023-01-11T20:44:58.090Z,15.90
2023-01-11T20:47:25.225Z,15.00
2023-01-11T20:49:52.007Z,13.17
2023-01-11T20:52:18.821Z,15.87
2023-01-11T20:54:45.942Z,15.57
2023-01-11T20:57:12.982Z,14.60
2023-01-11T20:59:39.823Z,14.83
2023-01-11T21:02:07.687Z,13.23
2023-01-11T21:04:35.723Z,13.97
2023-01-11T21:07:02.776Z,14.90
2023-01-11T21:09:29.628Z,15.00
2023-01-11T21:11:56.588Z,14.50
2023-01-11T21:14:23.632Z,15.50
2023-01-11T21:16:50.720Z,14.50
2023-01-11T21:19:17.863Z,15.43
2023-01-11T21:21:44.779Z,13.77
2023-01-11T21:24:13.835Z,14.23
2023-01-11T21:26:42.343Z,16.07
2023-01-11T21:29:10.655Z,14.70
2023-01-11T21:31:38.319Z,14.57
2023-01-11T21:34:05.515Z,15.97
2023-01-11T21:36:32.477Z,16.87
2023-01-11T21:38:59.894Z,14.87
2023-01-11T21:41:48.198Z,15.93
2023-01-11T21:44:16.065Z,16.63
2023-01-11T21:46:43.775Z,14.40
2023-01-11T21:49:11.223Z,14.50
2023-01-11T21:51:39.315Z,13.63
2023-01-11T21:54:08.843Z,14.73
2023-01-11T21:56:36.204Z,14.60
2023-01-11T21:59:03.352Z,15.33
2023-01-11T22:01:30.554Z,14.83
2023-01-11T22:03:57.604Z,14.60
2023-01-11T22:06:24.527Z,15.17
2023-01-11T22:08:51.434Z,14.20
2023-01-11T22:11:18.548Z,14.40
2023-01-11T22:13:45.475Z,15.23
2023-01-11T22:16:15.209Z,15.43
2023-01-11T22:18:43.048Z,15.00
2023-01-11T22:21:12.706Z,16.10
2023-01-11T22:23:40.285Z,15.83
2023-01-11T22:26:09.476Z,16.27
2023-01-11T22:28:56.403Z,17.97
2023-01-11T22:31:23.858Z,15.07
2023-01-11T22:33:50.923Z,15.67
2023-01-11T22:36:18.145Z,16.10
2023-01-11T22:38:44.991Z,15.63
2023-01-11T22:41:12.038Z,13.23
2023-01-11T22:43:38.813Z,13.93
2023-01-11T22:46:06.055Z,14.60
2023-01-11T22:48:32.914Z,14.93
2023-01-11T22:50:59.718Z,15.47
2023-01-11T22:53:26.646Z,16.23
2023-01-11T22:55:53.456Z,14.40
2023-01-11T22:58:20.239Z,16.70
2023-01-11T23:00:47.025Z,14.57
2023-01-11T23:03:15.552Z,16.03
2023-01-11T23:05:46.534Z,16.83
2023-01-11T23:08:14.333Z,16.63
2023-01-11T23:10:41.688Z,16.20
2023-01-11T23:13:29.914Z,16.90
2023-01-11T23:15:56.810Z,16.23
2023-01-11T23:18:23.619Z,19.17
2023-01-11T23:20:50.438Z,17.57
2023-01-11T23:23:17.229Z,18.27
2023-01-11T23:25:44.040Z,17.17
2023-01-11T23:28:10.890Z,18.87
2023-01-11T23:30:37.731Z,15.17
2023-01-11T23:33:04.630Z,17.27
2023-01-11T23:35:31.470Z,18.90
2023-01-11T23:37:58.243Z,18.97
2023-01-11T23:40:25.033Z,16.10
2023-01-11T23:42:51.995Z,16.87
2023-01-11T23:45:18.995Z,16.57
2023-01-11T23:47:46.070Z,18.07
2023-01-11T23:50:14.662Z,17.50
2023-01-11T23:52:41.724Z,16.27
2023-01-11T23:55:09.589Z,17.37
2023-01-11T23:57:36.713Z,16.80
